createdAt,value
2019-02-25T00:00:48.141Z,8.70
2019-02-25T00:01:48.308Z,9.80
2019-02-25T00:02:48.480Z,9.90
2019-02-25T00:03:48.655Z,10.10
2019-02-25T00:04:48.821Z,10.40
2019-02-25T00:05:48.993Z,10.40
2019-02-25T00:06:49.158Z,10.60
2019-02-25T00:07:49.336Z,10.10
2019-02-25T00:08:49.502Z,11.10
2019-02-25T00:09:49.673Z,10.80
2019-02-25T00:10:49.840Z,9.30
2019-02-25T00:11:50.013Z,8.90
2019-02-25T00:12:50.181Z,7.70
2019-02-25T00:13:50.356Z,6.80
2019-02-25T00:14:50.526Z,6.20
2019-02-25T00:15:50.694Z,6.10
2019-02-25T00:16:50.872Z,5.90
2019-02-25T00:17:51.033Z,6.10
2019-02-25T00:18:51.210Z,5.30
2019-02-25T00:19:51.379Z,4.90
2019-02-25T00:20:51.556Z,5.80
2019-02-25T00:21:51.720Z,5.30
2019-02-25T00:22:51.884Z,5.10
2019-02-25T00:23:52.054Z,5.10
2019-02-25T00:24:52.227Z,4.90
2019-02-25T00:25:52.397Z,5.10
2019-02-25T00:26:52.572Z,5.50
2019-02-25T00:27:52.741Z,5.00
2019-02-25T00:28:52.915Z,5.80
2019-02-25T00:29:53.086Z,5.60
2019-02-25T00:30:53.256Z,5.70
2019-02-25T00:31:53.435Z,5.80
2019-02-25T00:32:53.600Z,5.90
2019-02-25T00:33:53.777Z,6.60
2019-02-25T00:34:53.946Z,6.00
2019-02-25T00:35:54.115Z,6.20
2019-02-25T00:36:54.283Z,5.80
2019-02-25T00:37:54.466Z,5.70
2019-02-25T00:38:54.630Z,5.90
2019-02-25T00:39:54.801Z,6.10
2019-02-25T00:40:54.962Z,5.50
2019-02-25T00:41:55.139Z,6.20
2019-02-25T00:42:55.311Z,6.40
2019-02-25T00:43:55.473Z,7.00
2019-02-25T00:44:55.650Z,6.70
2019-02-25T00:45:55.820Z,7.30
2019-02-25T00:46:55.994Z,6.80
2019-02-25T00:47:56.149Z,7.60
2019-02-25T00:48:56.319Z,7.10
2019-02-25T00:49:56.493Z,6.60
2019-02-25T00:50:56.665Z,7.20
2019-02-25T00:51:56.832Z,6.20
2019-02-25T00:52:57.003Z,6.10
2019-02-25T00:53:57.173Z,6.10
2019-02-25T00:54:57.345Z,5.90
2019-02-25T00:55:57.516Z,5.60
2019-02-25T00:56:57.684Z,6.20
2019-02-25T00:57:57.860Z,5.40
2019-02-25T00:58:58.028Z,5.70
2019-02-25T00:59:58.198Z,5.70
2019-02-25T01:00:58.374Z,5.20
2019-02-25T01:01:58.544Z,5.70
2019-02-25T01:02:58.709Z,5.40
2019-02-25T01:04:59.043Z,5.10
2019-02-25T01:05:59.220Z,5.10
2019-02-25T01:06:59.386Z,5.30
2019-02-25T01:07:59.559Z,5.00
2019-02-25T01:08:59.727Z,4.70
2019-02-25T01:09:59.896Z,4.90
2019-02-25T01:11:00.074Z,5.50
2019-02-25T01:12:00.236Z,5.20
2019-02-25T01:13:00.417Z,5.10
2019-02-25T01:14:00.571Z,5.40
2019-02-25T01:15:00.743Z,5.50
2019-02-25T01:16:00.914Z,6.10
2019-02-25T01:17:01.095Z,5.60
2019-02-25T01:18:01.249Z,5.80
2019-02-25T01:19:01.416Z,6.30
2019-02-25T01:20:01.608Z,6.50
2019-02-25T01:21:01.757Z,6.40
2019-02-25T01:22:01.927Z,6.50
2019-02-25T01:23:02.094Z,6.70
2019-02-25T01:24:02.265Z,7.00
2019-02-25T01:25:02.443Z,7.40
2019-02-25T01:26:02.601Z,6.90
2019-02-25T01:27:02.773Z,6.50
2019-02-25T01:28:02.947Z,7.00
2019-02-25T01:29:03.131Z,6.40
2019-02-25T01:30:03.287Z,6.30
2019-02-25T01:31:03.453Z,6.20
2019-02-25T01:32:03.632Z,6.50
2019-02-25T01:33:03.800Z,5.80
2019-02-25T01:34:03.973Z,6.00
2019-02-25T01:35:04.144Z,6.20
2019-02-25T01:36:04.305Z,5.90
2019-02-25T01:37:04.481Z,6.10
2019-02-25T01:38:04.653Z,5.90
2019-02-25T01:39:04.836Z,5.40
2019-02-25T01:40:04.998Z,5.80
2019-02-25T01:41:05.164Z,5.80
2019-02-25T01:42:05.334Z,6.10
2019-02-25T01:43:05.502Z,6.40
2019-02-25T01:44:05.675Z,6.10
2019-02-25T01:45:05.852Z,6.10
2019-02-25T01:46:06.024Z,5.60
2019-02-25T01:47:06.191Z,5.80
2019-02-25T01:48:06.362Z,5.50
2019-02-25T01:49:06.547Z,5.90
2019-02-25T01:50:06.701Z,6.30
2019-02-25T01:51:06.867Z,5.70
2019-02-25T01:52:07.043Z,5.90
2019-02-25T01:53:07.212Z,5.80
2019-02-25T01:54:07.382Z,6.30
2019-02-25T01:55:07.557Z,5.90
2019-02-25T01:56:07.717Z,6.50
2019-02-25T01:57:07.891Z,6.50
2019-02-25T01:58:08.061Z,6.80
2019-02-25T01:59:08.240Z,6.10
2019-02-25T02:00:08.399Z,6.70
2019-02-25T02:01:08.570Z,6.20
2019-02-25T02:03:08.907Z,6.50
2019-02-25T02:04:09.076Z,6.50
2019-02-25T02:05:09.250Z,6.50
2019-02-25T02:06:09.418Z,6.20
2019-02-25T02:07:09.587Z,6.90
2019-02-25T02:08:09.762Z,6.30
2019-02-25T02:09:09.933Z,6.60
2019-02-25T02:10:10.099Z,6.50
2019-02-25T02:11:10.268Z,6.40
2019-02-25T02:12:10.437Z,6.30
2019-02-25T02:13:14.255Z,6.40
2019-02-25T02:14:10.783Z,6.60
2019-02-25T02:15:10.955Z,6.40
2019-02-25T02:16:11.125Z,6.50
2019-02-25T02:17:11.292Z,6.60
2019-02-25T02:18:11.474Z,5.80
2019-02-25T02:19:11.635Z,6.50
2019-02-25T02:20:11.799Z,6.30
2019-02-25T02:21:11.970Z,6.50
2019-02-25T02:22:12.155Z,6.40
2019-02-25T02:23:12.311Z,6.50
2019-02-25T02:24:12.484Z,6.80
2019-02-25T02:25:12.647Z,6.70
2019-02-25T02:26:12.814Z,6.50
2019-02-25T02:27:12.996Z,7.10
2019-02-25T02:28:13.157Z,6.40
2019-02-25T02:29:13.327Z,6.60
2019-02-25T02:30:13.500Z,6.90
2019-02-25T02:31:13.687Z,6.80
2019-02-25T02:32:13.837Z,6.80
2019-02-25T02:33:14.013Z,7.00
2019-02-25T02:34:14.173Z,6.80
2019-02-25T02:35:14.339Z,6.90
2019-02-25T02:36:14.505Z,7.00
2019-02-25T02:37:14.680Z,6.40
2019-02-25T02:38:14.850Z,7.50
2019-02-25T02:39:15.029Z,7.30
2019-02-25T02:40:15.214Z,7.00
2019-02-25T02:41:15.366Z,6.70
2019-02-25T02:42:15.532Z,7.10
2019-02-25T02:43:15.704Z,7.20
2019-02-25T02:44:15.877Z,7.30
2019-02-25T02:45:16.051Z,6.60
2019-02-25T02:46:16.207Z,6.70
2019-02-25T02:47:16.377Z,7.10
2019-02-25T02:48:16.546Z,6.90
2019-02-25T02:49:16.716Z,6.90
2019-02-25T02:50:16.891Z,6.50
2019-02-25T02:51:17.057Z,6.90
2019-02-25T02:52:17.239Z,6.80
2019-02-25T02:53:17.395Z,7.10
2019-02-25T02:54:17.569Z,6.60
2019-02-25T02:55:17.756Z,6.70
2019-02-25T02:56:17.911Z,6.30
2019-02-25T02:57:18.078Z,6.50
2019-02-25T02:58:18.246Z,7.20
2019-02-25T02:59:18.418Z,6.80
2019-02-25T03:00:18.592Z,6.80
2019-02-25T03:01:18.769Z,6.40
2019-02-25T03:02:18.924Z,6.70
2019-02-25T03:03:19.098Z,6.70
2019-02-25T03:04:19.278Z,6.50
2019-02-25T03:05:19.449Z,6.80
2019-02-25T03:06:19.603Z,6.60
2019-02-25T03:07:19.775Z,6.90
2019-02-25T03:08:19.945Z,6.90
2019-02-25T03:09:20.118Z,6.50
2019-02-25T03:10:20.304Z,6.90
2019-02-25T03:11:20.457Z,6.60
2019-02-25T03:12:20.623Z,6.50
2019-02-25T03:13:20.798Z,6.90
2019-02-25T03:14:20.969Z,6.40
2019-02-25T03:15:21.136Z,6.40
2019-02-25T03:16:21.311Z,6.80
2019-02-25T03:17:21.477Z,6.80
2019-02-25T03:18:21.672Z,6.60
2019-02-25T03:19:21.828Z,6.30
2019-02-25T03:20:21.989Z,6.50
2019-02-25T03:21:22.171Z,6.40
2019-02-25T03:22:22.326Z,6.40
2019-02-25T03:23:22.499Z,6.80
2019-02-25T03:24:22.660Z,6.40
2019-02-25T03:25:22.830Z,7.00
2019-02-25T03:26:23.013Z,6.60
2019-02-25T03:27:23.166Z,6.40
2019-02-25T03:28:23.337Z,6.40
2019-02-25T03:29:23.507Z,6.70
2019-02-25T03:30:23.685Z,6.30
2019-02-25T03:31:23.846Z,6.10
2019-02-25T03:32:24.021Z,6.50
2019-02-25T03:33:24.229Z,6.40
2019-02-25T03:34:24.406Z,6.30
2019-02-25T03:35:24.531Z,6.30
2019-02-25T03:36:24.699Z,6.40
2019-02-25T03:37:24.873Z,6.20
2019-02-25T03:38:25.047Z,6.60
2019-02-25T03:39:25.213Z,6.50
2019-02-25T03:40:25.389Z,6.70
2019-02-25T03:41:25.545Z,6.50
2019-02-25T03:42:25.716Z,6.00
2019-02-25T03:43:25.888Z,7.30
2019-02-25T03:44:26.060Z,7.00
2019-02-25T03:45:26.233Z,6.80
2019-02-25T03:46:26.394Z,6.60
2019-02-25T03:47:26.571Z,6.60
2019-02-25T03:48:26.739Z,6.80
2019-02-25T03:49:26.908Z,6.30
2019-02-25T03:50:27.074Z,6.40
2019-02-25T03:51:27.248Z,6.20
2019-02-25T03:52:27.425Z,6.50
2019-02-25T03:53:27.602Z,6.50
2019-02-25T03:54:27.762Z,6.20
2019-02-25T03:55:27.938Z,6.50
2019-02-25T03:56:28.100Z,6.50
2019-02-25T03:57:28.328Z,6.50
2019-02-25T03:58:28.442Z,6.30
2019-02-25T03:59:28.614Z,6.20
2019-02-25T04:00:28.794Z,6.60
2019-02-25T04:01:28.954Z,6.30
2019-02-25T04:02:29.134Z,5.90
2019-02-25T04:03:29.294Z,6.10
2019-02-25T04:04:29.465Z,5.80
2019-02-25T04:05:29.641Z,6.00
2019-02-25T04:06:29.804Z,6.60
2019-02-25T04:07:29.980Z,6.60
2019-02-25T04:08:30.147Z,6.40
2019-02-25T04:09:30.334Z,5.90
2019-02-25T04:10:30.483Z,5.30
2019-02-25T04:11:30.653Z,5.40
2019-02-25T04:12:30.824Z,5.30
2019-02-25T04:13:30.999Z,5.00
2019-02-25T04:14:31.171Z,5.90
2019-02-25T04:15:31.343Z,5.10
2019-02-25T04:16:31.512Z,4.90
2019-02-25T04:17:31.684Z,5.40
2019-02-25T04:18:31.864Z,5.00
2019-02-25T04:19:32.026Z,5.30
2019-02-25T04:20:32.196Z,5.30
2019-02-25T04:21:32.379Z,4.60
2019-02-25T04:22:32.543Z,5.40
2019-02-25T04:23:32.704Z,5.60
2019-02-25T04:24:32.877Z,5.30
2019-02-25T04:25:33.053Z,5.10
2019-02-25T04:26:33.222Z,5.80
2019-02-25T04:27:33.396Z,5.30
2019-02-25T04:28:33.561Z,5.30
2019-02-25T04:29:33.732Z,5.20
2019-02-25T04:30:33.905Z,5.50
2019-02-25T04:31:34.077Z,4.80
2019-02-25T04:32:34.258Z,5.70
2019-02-25T04:33:34.417Z,5.10
2019-02-25T04:34:34.584Z,5.30
2019-02-25T04:35:34.757Z,5.50
2019-02-25T04:36:34.929Z,5.40
2019-02-25T04:37:35.102Z,5.50
2019-02-25T04:38:35.266Z,5.50
2019-02-25T04:39:35.437Z,5.60
2019-02-25T04:40:35.612Z,6.00
2019-02-25T04:41:35.783Z,6.10
2019-02-25T04:42:35.949Z,6.20
2019-02-25T04:43:36.128Z,5.70
2019-02-25T04:44:36.310Z,5.80
2019-02-25T04:45:36.457Z,5.20
2019-02-25T04:46:36.628Z,5.10
2019-02-25T04:47:36.816Z,5.10
2019-02-25T04:48:36.981Z,4.80
2019-02-25T04:49:37.148Z,4.10
2019-02-25T04:50:37.321Z,4.80
2019-02-25T04:51:37.490Z,4.90
2019-02-25T04:52:37.659Z,4.60
2019-02-25T04:53:37.838Z,4.40
2019-02-25T04:54:38.008Z,4.60
2019-02-25T04:55:38.175Z,4.80
2019-02-25T04:56:38.332Z,4.70
2019-02-25T04:57:38.513Z,4.50
2019-02-25T04:58:38.673Z,5.20
2019-02-25T04:59:38.839Z,4.80
2019-02-25T05:00:39.016Z,5.00
2019-02-25T05:01:39.180Z,5.00
2019-02-25T05:02:39.354Z,4.90
2019-02-25T05:03:39.524Z,5.30
2019-02-25T05:04:39.688Z,5.60
2019-02-25T05:05:39.856Z,5.00
2019-02-25T05:06:40.030Z,5.40
2019-02-25T05:07:40.198Z,5.40
2019-02-25T05:08:40.369Z,5.10
2019-02-25T05:09:40.551Z,5.40
2019-02-25T05:10:40.710Z,5.20
2019-02-25T05:11:40.882Z,5.00
2019-02-25T05:12:41.055Z,4.80
2019-02-25T05:13:41.223Z,5.10
2019-02-25T05:14:41.395Z,5.20
2019-02-25T05:15:41.574Z,5.40
2019-02-25T05:16:41.736Z,5.40
2019-02-25T05:17:41.907Z,5.30
2019-02-25T05:18:42.075Z,5.10
2019-02-25T05:19:42.262Z,5.40
2019-02-25T05:20:42.415Z,5.20
2019-02-25T05:21:43.260Z,4.50
2019-02-25T05:22:43.324Z,4.80
2019-02-25T05:23:42.873Z,4.70
2019-02-25T05:24:43.039Z,4.60
2019-02-25T05:25:43.216Z,4.70
2019-02-25T05:26:43.375Z,4.70
2019-02-25T05:27:43.558Z,5.20
2019-02-25T05:28:43.717Z,4.40
2019-02-25T05:29:43.891Z,4.70
2019-02-25T05:30:44.067Z,4.80
2019-02-25T05:31:44.229Z,5.20
2019-02-25T05:32:44.395Z,5.10
2019-02-25T05:33:44.563Z,5.00
2019-02-25T05:34:44.745Z,4.90
2019-02-25T05:35:44.901Z,5.30
2019-02-25T05:36:45.074Z,4.90
2019-02-25T05:37:45.240Z,5.10
2019-02-25T05:38:45.413Z,4.80
2019-02-25T05:39:45.581Z,5.10
2019-02-25T05:40:45.761Z,4.60
2019-02-25T05:41:45.925Z,5.40
2019-02-25T05:42:46.113Z,5.30
2019-02-25T05:43:46.262Z,4.80
2019-02-25T05:44:46.431Z,5.30
2019-02-25T05:45:46.618Z,5.10
2019-02-25T05:46:46.782Z,5.70
2019-02-25T05:47:46.952Z,5.30
2019-02-25T05:48:47.120Z,5.10
2019-02-25T05:49:47.418Z,5.20
2019-02-25T05:50:49.533Z,5.40
2019-02-25T05:51:47.631Z,4.80
2019-02-25T05:52:47.801Z,5.30
2019-02-25T05:53:47.979Z,5.60
2019-02-25T05:54:48.147Z,5.70
2019-02-25T05:55:48.313Z,5.10
2019-02-25T05:56:48.491Z,5.20
2019-02-25T05:57:48.654Z,5.20
2019-02-25T05:58:48.822Z,5.40
2019-02-25T05:59:48.997Z,5.60
2019-02-25T06:00:49.162Z,6.00
2019-02-25T06:01:49.336Z,6.20
2019-02-25T06:02:49.507Z,5.10
2019-02-25T06:03:49.686Z,5.00
2019-02-25T06:04:49.861Z,5.90
2019-02-25T06:05:50.040Z,5.50
2019-02-25T06:06:50.195Z,5.40
2019-02-25T06:07:50.375Z,5.60
2019-02-25T06:08:50.544Z,5.30
2019-02-25T06:09:50.712Z,5.80
2019-02-25T06:10:50.891Z,5.60
2019-02-25T06:11:51.054Z,6.00
2019-02-25T06:12:51.222Z,6.30
2019-02-25T06:13:51.403Z,6.00
2019-02-25T06:14:51.563Z,6.20
2019-02-25T06:15:51.734Z,6.60
2019-02-25T06:16:51.899Z,6.30
2019-02-25T06:17:52.069Z,6.40
2019-02-25T06:18:52.242Z,6.20
2019-02-25T06:19:52.426Z,6.50
2019-02-25T06:20:52.577Z,6.40
2019-02-25T06:21:52.748Z,6.30
2019-02-25T06:22:52.921Z,5.70
2019-02-25T06:23:53.093Z,6.00
2019-02-25T06:24:53.260Z,6.20
2019-02-25T06:25:53.436Z,5.90
2019-02-25T06:26:53.587Z,6.30
2019-02-25T06:27:53.756Z,5.90
2019-02-25T06:29:54.083Z,5.70
2019-02-25T06:30:54.257Z,6.00
2019-02-25T06:31:54.423Z,6.30
2019-02-25T06:32:54.593Z,5.80
2019-02-25T06:33:54.765Z,6.20
2019-02-25T06:34:54.931Z,6.40
2019-02-25T06:35:55.114Z,5.60
2019-02-25T06:36:55.274Z,6.30
2019-02-25T06:37:55.446Z,6.60
2019-02-25T06:38:55.614Z,6.20
2019-02-25T06:39:55.785Z,6.00
2019-02-25T06:40:55.966Z,6.30
2019-02-25T06:41:56.134Z,6.20
2019-02-25T06:42:56.300Z,6.40
2019-02-25T06:43:56.481Z,5.80
2019-02-25T06:44:56.641Z,6.20
2019-02-25T06:45:56.812Z,6.20
2019-02-25T06:46:56.981Z,5.80
2019-02-25T06:47:57.153Z,6.50
2019-02-25T06:48:57.323Z,6.20
2019-02-25T06:49:57.497Z,6.00
2019-02-25T06:50:57.664Z,5.90
2019-02-25T06:51:57.833Z,6.30
2019-02-25T06:52:58.005Z,6.20
2019-02-25T06:53:58.172Z,6.10
2019-02-25T06:54:58.344Z,7.10
2019-02-25T06:55:58.523Z,6.00
2019-02-25T06:56:58.681Z,12.00
2019-02-25T06:57:58.904Z,92.10
2019-02-25T06:58:59.027Z,143.40
2019-02-25T06:59:59.198Z,54.00
2019-02-25T07:00:59.375Z,62.80
2019-02-25T07:01:59.547Z,9.20
2019-02-25T07:02:59.716Z,6.50
2019-02-25T07:03:59.887Z,5.70
2019-02-25T07:05:00.136Z,5.40
2019-02-25T07:06:00.229Z,5.30
2019-02-25T07:07:00.404Z,5.20
2019-02-25T07:08:00.626Z,5.60
2019-02-25T07:09:00.743Z,5.90
2019-02-25T07:10:00.915Z,5.90
2019-02-25T07:11:01.091Z,5.30
2019-02-25T07:12:01.261Z,5.50
2019-02-25T07:13:01.430Z,6.00
2019-02-25T07:14:01.606Z,5.70
2019-02-25T07:15:01.777Z,5.90
2019-02-25T07:16:01.951Z,5.70
2019-02-25T07:17:02.133Z,5.90
2019-02-25T07:18:02.293Z,6.10
2019-02-25T07:19:02.459Z,5.80
2019-02-25T07:20:02.631Z,6.30
2019-02-25T07:21:02.806Z,6.20
2019-02-25T07:22:02.973Z,6.30
2019-02-25T07:23:03.485Z,5.80
2019-02-25T07:24:03.321Z,5.90
2019-02-25T07:25:03.511Z,5.90
2019-02-25T07:26:03.711Z,5.90
2019-02-25T07:27:03.846Z,6.20
2019-02-25T07:28:04.019Z,6.30
2019-02-25T07:29:04.194Z,5.90
2019-02-25T07:30:04.372Z,6.20
2019-02-25T07:31:04.547Z,5.90
2019-02-25T07:32:04.721Z,5.60
2019-02-25T07:33:04.908Z,6.20
2019-02-25T07:34:05.087Z,6.50
2019-02-25T07:35:05.278Z,6.10
2019-02-25T07:36:05.444Z,6.40
2019-02-25T07:37:05.613Z,6.20
2019-02-25T07:38:05.799Z,5.90
2019-02-25T07:39:06.014Z,6.10
2019-02-25T07:40:06.154Z,5.90
2019-02-25T07:41:06.328Z,5.80
2019-02-25T07:42:06.504Z,5.80
2019-02-25T07:43:06.679Z,6.50
2019-02-25T07:44:06.861Z,6.30
2019-02-25T07:45:07.025Z,6.00
2019-02-25T07:46:07.184Z,6.00
2019-02-25T07:47:07.352Z,5.50
2019-02-25T07:48:07.537Z,5.80
2019-02-25T07:49:07.734Z,5.50
2019-02-25T07:50:07.890Z,6.20
2019-02-25T07:51:08.056Z,5.90
2019-02-25T07:52:08.228Z,6.20
2019-02-25T07:53:08.394Z,6.50
2019-02-25T07:54:08.573Z,6.40
2019-02-25T07:55:08.745Z,6.70
2019-02-25T07:56:08.922Z,5.90
2019-02-25T07:57:09.104Z,6.10
2019-02-25T07:58:09.278Z,5.80
2019-02-25T07:59:09.452Z,5.50
2019-02-25T08:00:09.627Z,5.20
2019-02-25T08:01:09.800Z,5.90
2019-02-25T08:02:09.982Z,5.50
2019-02-25T08:03:10.143Z,5.50
2019-02-25T08:04:10.318Z,5.70
2019-02-25T08:05:10.490Z,6.20
2019-02-25T08:06:11.999Z,5.60
2019-02-25T08:07:10.837Z,5.60
2019-02-25T08:08:11.014Z,5.80
2019-02-25T08:09:11.430Z,5.50
2019-02-25T08:10:11.364Z,5.40
2019-02-25T08:11:11.544Z,5.60
2019-02-25T08:12:11.716Z,5.80
2019-02-25T08:13:11.883Z,5.70
2019-02-25T08:14:12.787Z,6.00
2019-02-25T08:15:12.260Z,5.20
2019-02-25T08:16:12.484Z,6.40
2019-02-25T08:17:12.596Z,6.00
2019-02-25T08:18:12.773Z,6.20
2019-02-25T08:19:12.944Z,6.70
2019-02-25T08:20:13.137Z,6.20
2019-02-25T08:21:13.308Z,6.20
2019-02-25T08:22:13.474Z,6.10
2019-02-25T08:23:13.672Z,6.10
2019-02-25T08:24:13.836Z,6.70
2019-02-25T08:25:14.014Z,6.90
2019-02-25T08:26:14.178Z,6.30
2019-02-25T08:27:14.368Z,5.90
2019-02-25T08:28:14.568Z,6.10
2019-02-25T08:29:14.715Z,5.80
2019-02-25T08:30:14.910Z,5.90
2019-02-25T08:31:15.080Z,5.70
2019-02-25T08:32:15.257Z,5.00
2019-02-25T08:33:15.445Z,5.70
2019-02-25T08:34:18.753Z,5.70
2019-02-25T08:35:15.795Z,5.60
2019-02-25T08:36:15.966Z,5.60
2019-02-25T08:37:16.491Z,5.70
2019-02-25T08:38:16.358Z,5.90
2019-02-25T08:39:17.095Z,5.30
2019-02-25T08:40:16.717Z,5.70
2019-02-25T08:41:16.892Z,5.50
2019-02-25T08:42:17.068Z,5.40
2019-02-25T08:43:17.248Z,5.70
2019-02-25T08:44:17.431Z,5.90
2019-02-25T08:45:17.600Z,6.10
2019-02-25T08:46:17.777Z,6.40
2019-02-25T08:47:17.958Z,6.40
2019-02-25T08:48:18.142Z,7.10
2019-02-25T08:49:18.313Z,7.10
2019-02-25T08:50:18.495Z,7.20
2019-02-25T08:51:18.675Z,7.40
2019-02-25T08:52:18.856Z,7.60
2019-02-25T08:53:19.038Z,8.30
2019-02-25T08:54:19.221Z,7.80
2019-02-25T08:55:19.404Z,8.20
2019-02-25T08:56:19.573Z,28.80
2019-02-25T08:57:19.753Z,18.70
2019-02-25T08:58:19.929Z,8.60
2019-02-25T08:59:20.114Z,8.00
2019-02-25T09:00:20.292Z,7.70
2019-02-25T09:01:20.467Z,7.90
2019-02-25T09:02:20.646Z,7.80
2019-02-25T09:03:20.837Z,7.30
2019-02-25T09:04:21.000Z,7.40
2019-02-25T09:05:21.178Z,7.50
2019-02-25T09:06:21.357Z,7.20
2019-02-25T09:07:21.533Z,7.80
2019-02-25T09:08:21.703Z,8.00
2019-02-25T09:09:21.901Z,7.80
2019-02-25T09:10:22.063Z,7.30
2019-02-25T09:11:22.238Z,7.30
2019-02-25T09:12:22.436Z,8.10
2019-02-25T09:13:23.893Z,7.90
2019-02-25T09:14:22.778Z,7.80
2019-02-25T09:15:22.959Z,7.60
2019-02-25T09:16:23.140Z,7.80
2019-02-25T09:17:23.331Z,7.60
2019-02-25T09:18:23.503Z,7.80
2019-02-25T09:19:23.673Z,7.40
2019-02-25T09:20:23.857Z,8.10
2019-02-25T09:21:31.626Z,7.90
2019-02-25T09:22:24.238Z,7.70
2019-02-25T09:23:24.415Z,7.80
2019-02-25T09:24:24.613Z,8.00
2019-02-25T09:25:24.775Z,7.50
2019-02-25T09:26:24.975Z,7.10
2019-02-25T09:27:25.137Z,7.70
2019-02-25T09:28:25.331Z,7.70
2019-02-25T09:29:25.500Z,7.90
2019-02-25T09:30:25.681Z,7.50
2019-02-25T09:31:25.879Z,7.30
2019-02-25T09:32:26.041Z,7.50
2019-02-25T09:33:26.221Z,7.70
2019-02-25T09:34:26.401Z,7.20
2019-02-25T09:35:26.593Z,7.70
2019-02-25T09:36:26.761Z,7.80
2019-02-25T09:37:26.943Z,7.70
2019-02-25T09:38:27.124Z,7.40
2019-02-25T09:39:27.314Z,7.60
2019-02-25T09:40:27.486Z,7.30
2019-02-25T09:41:30.192Z,7.50
2019-02-25T09:42:27.857Z,7.60
2019-02-25T09:43:28.030Z,7.60
2019-02-25T09:44:28.211Z,7.40
2019-02-25T09:45:28.392Z,7.40
2019-02-25T09:46:28.577Z,7.50
2019-02-25T09:47:28.770Z,7.70
2019-02-25T09:48:28.963Z,7.30
2019-02-25T09:49:29.115Z,7.90
2019-02-25T09:50:29.301Z,7.00
2019-02-25T09:51:29.510Z,7.00
2019-02-25T09:52:29.665Z,7.20
2019-02-25T09:53:29.853Z,7.60
2019-02-25T09:54:30.018Z,7.00
2019-02-25T09:55:30.198Z,6.90
2019-02-25T09:56:30.384Z,7.20
2019-02-25T09:57:30.563Z,7.20
2019-02-25T09:58:30.741Z,7.20
2019-02-25T09:59:30.927Z,6.80
2019-02-25T10:00:31.110Z,7.40
2019-02-25T10:01:31.291Z,7.10
2019-02-25T10:02:31.484Z,7.10
2019-02-25T10:03:31.654Z,7.20
2019-02-25T10:04:31.836Z,7.00
2019-02-25T10:05:32.027Z,7.10
2019-02-25T10:06:32.210Z,7.10
2019-02-25T10:07:32.384Z,6.80
2019-02-25T10:08:32.567Z,6.70
2019-02-25T10:09:32.749Z,7.50
2019-02-25T10:10:32.935Z,7.60
2019-02-25T10:11:33.124Z,6.90
2019-02-25T10:12:33.301Z,7.00
2019-02-25T10:13:33.490Z,7.10
2019-02-25T10:14:33.669Z,6.60
2019-02-25T10:15:33.849Z,6.90
2019-02-25T10:16:34.028Z,6.90
2019-02-25T10:17:34.222Z,6.30
2019-02-25T10:18:34.397Z,6.80
2019-02-25T10:19:34.897Z,6.90
2019-02-25T10:20:34.760Z,6.70
2019-02-25T10:21:34.941Z,6.70
2019-02-25T10:22:35.125Z,6.50
2019-02-25T10:23:35.315Z,6.80
2019-02-25T10:24:35.501Z,6.80
2019-02-25T10:25:35.688Z,7.80
2019-02-25T10:26:35.880Z,6.40
2019-02-25T10:27:36.057Z,6.90
2019-02-25T10:28:36.233Z,6.60
2019-02-25T10:29:36.414Z,5.90
2019-02-25T10:30:36.605Z,6.60
2019-02-25T10:31:38.108Z,6.20
2019-02-25T10:32:36.973Z,6.50
2019-02-25T10:33:37.153Z,6.20
2019-02-25T10:34:37.341Z,5.80
2019-02-25T10:35:37.518Z,6.60
2019-02-25T10:36:37.703Z,6.30
2019-02-25T10:37:38.766Z,7.00
2019-02-25T10:38:38.068Z,6.30
2019-02-25T10:39:38.251Z,5.90
2019-02-25T10:40:38.452Z,6.10
2019-02-25T10:41:38.629Z,5.90
2019-02-25T10:42:38.818Z,6.60
2019-02-25T10:43:39.009Z,6.50
2019-02-25T10:44:40.256Z,6.80
2019-02-25T10:45:41.065Z,6.90
2019-02-25T10:46:40.845Z,6.50
2019-02-25T10:47:39.726Z,6.80
2019-02-25T10:48:39.916Z,6.40
2019-02-25T10:49:40.087Z,6.30
2019-02-25T10:50:40.914Z,6.70
2019-02-25T10:51:41.267Z,7.40
2019-02-25T10:52:41.322Z,7.40
2019-02-25T10:53:40.827Z,7.10
2019-02-25T10:54:41.010Z,7.30
2019-02-25T10:55:44.530Z,9.80
2019-02-25T10:56:41.379Z,9.20
2019-02-25T10:57:41.556Z,8.80
2019-02-25T10:58:41.739Z,6.80
2019-02-25T10:59:41.928Z,6.40
2019-02-25T11:00:43.684Z,6.30
2019-02-25T11:01:43.432Z,6.00
2019-02-25T11:02:44.391Z,6.20
2019-02-25T11:03:43.525Z,6.70
2019-02-25T11:04:42.843Z,6.50
2019-02-25T11:05:43.034Z,6.40
2019-02-25T11:06:43.215Z,6.10
2019-02-25T11:07:43.400Z,6.40
2019-02-25T11:08:45.618Z,6.70
2019-02-25T11:09:45.688Z,6.20
2019-02-25T11:10:44.561Z,6.00
2019-02-25T11:11:44.210Z,6.40
2019-02-25T11:12:44.396Z,7.20
2019-02-25T11:13:44.581Z,5.60
2019-02-25T11:14:44.763Z,5.30
2019-02-25T11:15:47.824Z,5.20
2019-02-25T11:16:46.095Z,5.70
2019-02-25T11:17:45.858Z,5.60
2019-02-25T11:18:45.504Z,5.90
2019-02-25T11:19:45.685Z,6.30
2019-02-25T11:20:45.868Z,5.90
2019-02-25T11:21:46.051Z,5.90
2019-02-25T11:22:48.425Z,7.00
2019-02-25T11:23:47.197Z,7.60
2019-02-25T11:24:49.005Z,6.70
2019-02-25T11:25:46.800Z,5.80
2019-02-25T11:26:46.995Z,5.90
2019-02-25T11:27:47.175Z,5.80
2019-02-25T11:28:47.361Z,5.30
2019-02-25T11:29:48.454Z,5.80
2019-02-25T11:30:49.805Z,5.40
2019-02-25T11:31:49.516Z,5.30
2019-02-25T11:32:49.126Z,5.60
2019-02-25T11:33:48.298Z,6.00
2019-02-25T11:34:48.504Z,5.80
2019-02-25T11:35:48.670Z,5.60
2019-02-25T11:36:50.964Z,5.50
2019-02-25T11:37:50.090Z,5.90
2019-02-25T11:38:49.492Z,5.80
2019-02-25T11:39:49.417Z,5.40
2019-02-25T11:40:49.663Z,6.10
2019-02-25T11:41:49.841Z,8.20
2019-02-25T11:42:50.028Z,8.20
2019-02-25T11:43:52.574Z,7.90
2019-02-25T11:44:51.955Z,5.60
2019-02-25T11:45:51.185Z,6.40
2019-02-25T11:46:50.826Z,6.10
2019-02-25T11:47:51.020Z,7.60
2019-02-25T11:48:51.192Z,8.20
2019-02-25T11:49:51.472Z,6.80
2019-02-25T11:50:51.557Z,5.80
2019-02-25T11:51:51.742Z,4.60
2019-02-25T11:52:52.014Z,4.30
2019-02-25T11:53:52.190Z,5.30
2019-02-25T11:54:52.557Z,5.10
2019-02-25T11:55:52.609Z,4.40
2019-02-25T11:56:52.813Z,4.50
2019-02-25T11:57:52.985Z,5.40
2019-02-25T11:58:53.231Z,4.20
2019-02-25T11:59:54.026Z,3.50
2019-02-25T12:00:53.411Z,3.80
2019-02-25T12:01:53.598Z,2.60
2019-02-25T12:02:53.786Z,3.30
2019-02-25T12:03:54.005Z,3.80
2019-02-25T12:04:54.199Z,3.50
2019-02-25T12:05:54.382Z,2.90
2019-02-25T12:06:54.642Z,3.10
2019-02-25T12:07:54.734Z,3.40
2019-02-25T12:08:54.928Z,3.50
2019-02-25T12:09:55.118Z,3.60
2019-02-25T12:10:55.324Z,3.40
2019-02-25T12:11:55.501Z,2.80
2019-02-25T12:12:55.681Z,2.20
2019-02-25T12:13:55.872Z,2.80
2019-02-25T12:14:56.056Z,2.50
2019-02-25T12:15:56.247Z,2.90
2019-02-25T12:16:56.436Z,4.50
2019-02-25T12:17:56.620Z,4.50
2019-02-25T12:18:56.806Z,4.40
2019-02-25T12:19:56.997Z,4.60
2019-02-25T12:20:57.173Z,3.70
2019-02-25T12:21:57.368Z,4.10
2019-02-25T12:22:57.568Z,3.80
2019-02-25T12:23:57.763Z,3.10
2019-02-25T12:24:57.951Z,3.20
2019-02-25T12:25:58.170Z,3.60
2019-02-25T12:26:58.362Z,3.70
2019-02-25T12:27:58.546Z,3.70
2019-02-25T12:28:58.724Z,3.70
2019-02-25T12:29:58.911Z,5.00
2019-02-25T12:30:59.091Z,3.40
2019-02-25T12:31:59.279Z,3.50
2019-02-25T12:32:59.455Z,3.10
2019-02-25T12:33:59.638Z,3.10
2019-02-25T12:34:59.914Z,3.60
2019-02-25T12:35:59.967Z,3.40
2019-02-25T12:37:00.190Z,2.70
2019-02-25T12:38:00.362Z,3.00
2019-02-25T12:39:00.534Z,3.30
2019-02-25T12:40:00.720Z,3.10
2019-02-25T12:41:00.887Z,3.40
2019-02-25T12:42:01.089Z,3.20
2019-02-25T12:43:01.262Z,2.70
2019-02-25T12:44:01.453Z,3.00
2019-02-25T12:45:01.643Z,2.40
2019-02-25T12:46:01.808Z,2.50
2019-02-25T12:47:01.990Z,2.80
2019-02-25T12:48:02.169Z,3.10
2019-02-25T12:49:02.350Z,3.00
2019-02-25T12:50:02.536Z,2.10
2019-02-25T12:51:02.746Z,2.30
2019-02-25T12:52:02.885Z,2.20
2019-02-25T12:53:03.079Z,2.20
2019-02-25T12:54:03.273Z,2.20
2019-02-25T12:55:03.468Z,2.30
2019-02-25T12:56:03.652Z,2.20
2019-02-25T12:57:03.841Z,2.30
2019-02-25T12:58:04.030Z,2.40
2019-02-25T12:59:05.292Z,4.70
2019-02-25T13:00:04.381Z,3.20
2019-02-25T13:01:04.562Z,3.10
2019-02-25T13:02:04.766Z,3.40
2019-02-25T13:03:04.935Z,5.40
2019-02-25T13:04:05.114Z,5.00
2019-02-25T13:05:05.297Z,3.40
2019-02-25T13:06:05.485Z,3.20
2019-02-25T13:07:05.662Z,2.30
2019-02-25T13:08:06.228Z,2.30
2019-02-25T13:09:06.035Z,2.00
2019-02-25T13:10:06.215Z,2.20
2019-02-25T13:11:06.410Z,2.00
2019-02-25T13:12:06.579Z,2.40
2019-02-25T13:13:06.787Z,4.20
2019-02-25T13:14:06.967Z,3.80
2019-02-25T13:16:07.318Z,2.50
2019-02-25T13:17:07.490Z,2.00
2019-02-25T13:18:07.677Z,2.10
2019-02-25T13:19:07.859Z,1.70
2019-02-25T13:20:08.047Z,1.90
2019-02-25T13:21:08.227Z,1.80
2019-02-25T13:22:08.416Z,1.50
2019-02-25T13:23:08.582Z,1.70
2019-02-25T13:24:09.932Z,1.50